createdAt,value
2024-02-13T00:00:57.109Z,7.49
2024-02-13T00:03:59.307Z,7.46
2024-02-13T00:07:01.554Z,7.48
2024-02-13T00:10:04.260Z,7.40
2024-02-13T00:13:06.500Z,7.40
2024-02-13T00:16:08.693Z,7.41
2024-02-13T00:19:12.690Z,7.40
2024-02-13T00:22:16.041Z,7.36
2024-02-13T00:25:19.534Z,7.28
2024-02-13T00:28:21.844Z,7.30
2024-02-13T00:31:24.532Z,7.30
2024-02-13T00:34:27.175Z,7.25
2024-02-13T00:37:29.920Z,7.31
2024-02-13T00:40:32.019Z,7.28
2024-02-13T00:43:34.357Z,7.23
2024-02-13T00:46:36.553Z,7.21
2024-02-13T00:49:39.038Z,7.22
2024-02-13T00:52:43.703Z,7.22
2024-02-13T00:55:46.866Z,7.15
2024-02-13T00:58:49.197Z,7.08
2024-02-13T01:01:51.454Z,7.06
2024-02-13T01:04:53.606Z,7.12
2024-02-13T01:07:55.860Z,7.07
2024-02-13T01:10:58.043Z,7.07
2024-02-13T01:14:01.458Z,7.10
2024-02-13T01:17:03.938Z,7.11
2024-02-13T01:20:10.072Z,7.06
2024-02-13T01:23:13.423Z,7.00
2024-02-13T01:26:15.915Z,6.99
2024-02-13T01:29:18.962Z,6.96
2024-02-13T01:32:21.285Z,6.84
2024-02-13T01:35:23.658Z,6.91
2024-02-13T01:38:29.181Z,6.97
2024-02-13T01:41:31.477Z,6.98
2024-02-13T01:44:33.968Z,6.85
2024-02-13T01:47:37.701Z,6.81
2024-02-13T01:50:40.067Z,6.78
2024-02-13T01:53:43.700Z,6.78
2024-02-13T01:56:50.230Z,6.77
2024-02-13T01:59:53.101Z,6.78
2024-02-13T02:02:55.849Z,6.73
2024-02-13T02:06:02.547Z,6.71
2024-02-13T02:09:04.944Z,6.72
2024-02-13T02:12:07.465Z,6.63
2024-02-13T02:15:11.885Z,6.64
2024-02-13T02:18:14.531Z,6.66
2024-02-13T02:21:16.915Z,6.63
2024-02-13T02:24:19.035Z,6.60
2024-02-13T02:27:21.672Z,6.65
2024-02-13T02:30:23.938Z,6.58
2024-02-13T02:33:26.257Z,6.49
2024-02-13T02:36:28.464Z,6.55
2024-02-13T02:39:30.691Z,6.48
2024-02-13T02:42:33.031Z,6.48
2024-02-13T02:45:35.275Z,6.43
2024-02-13T02:48:38.956Z,6.42
2024-02-13T02:51:41.383Z,6.40
2024-02-13T02:54:44.893Z,6.44
2024-02-13T02:57:47.227Z,6.38
2024-02-13T03:00:49.870Z,6.39
2024-02-13T03:03:52.581Z,6.40
2024-02-13T03:06:55.280Z,6.42
2024-02-13T03:09:57.645Z,6.38
2024-02-13T03:12:59.870Z,6.35
2024-02-13T03:16:03.813Z,6.40
2024-02-13T03:19:07.165Z,6.41
2024-02-13T03:22:09.723Z,6.40
2024-02-13T03:25:11.923Z,6.39
2024-02-13T03:28:14.126Z,6.42
2024-02-13T03:31:16.424Z,6.57
2024-02-13T03:34:18.598Z,6.48
2024-02-13T03:37:21.053Z,6.39
2024-02-13T03:40:23.525Z,6.42
2024-02-13T03:43:25.745Z,6.39
2024-02-13T03:46:27.938Z,6.39
2024-02-13T03:49:30.198Z,6.37
2024-02-13T03:52:32.476Z,6.34
2024-02-13T03:55:34.691Z,6.35
2024-02-13T03:58:37.029Z,6.43
2024-02-13T04:01:39.227Z,6.39
2024-02-13T04:04:41.470Z,6.40
2024-02-13T04:07:44.369Z,6.33
2024-02-13T04:10:48.544Z,6.35
2024-02-13T04:13:50.826Z,6.39
2024-02-13T04:16:53.146Z,6.31
2024-02-13T04:19:55.421Z,6.29
2024-02-13T04:22:57.661Z,6.30
2024-02-13T04:25:59.904Z,6.26
2024-02-13T04:29:02.160Z,6.26
2024-02-13T04:32:04.754Z,6.29
2024-02-13T04:35:08.995Z,6.30
2024-02-13T04:38:11.276Z,6.26
2024-02-13T04:41:13.577Z,6.25
2024-02-13T04:44:15.906Z,6.20
2024-02-13T04:47:18.174Z,6.11
2024-02-13T04:50:21.448Z,6.01
2024-02-13T04:53:24.002Z,5.95
2024-02-13T04:56:27.486Z,5.77
2024-02-13T04:59:38.727Z,5.69
2024-02-13T05:02:41.307Z,5.58
2024-02-13T05:06:05.261Z,5.56
2024-02-13T05:09:07.893Z,5.50
2024-02-13T05:12:10.408Z,5.41
2024-02-13T05:15:12.697Z,5.41
2024-02-13T05:18:15.100Z,5.39
2024-02-13T05:21:20.490Z,5.38
2024-02-13T05:24:22.665Z,5.36
2024-02-13T05:27:26.539Z,5.36
2024-02-13T05:30:28.606Z,5.29
2024-02-13T05:33:31.015Z,5.24
2024-02-13T05:36:34.318Z,5.18
2024-02-13T05:39:37.258Z,5.14
2024-02-13T05:42:39.633Z,5.11
2024-02-13T05:45:41.871Z,5.09
2024-02-13T05:48:44.518Z,5.02
2024-02-13T05:51:47.054Z,5.02
2024-02-13T05:54:49.311Z,5.02
2024-02-13T05:57:52.172Z,5.00
2024-02-13T06:00:55.829Z,5.00
2024-02-13T06:04:02.690Z,5.02
2024-02-13T06:07:06.686Z,5.03
2024-02-13T06:10:11.207Z,5.03
2024-02-13T06:13:15.879Z,5.02
2024-02-13T06:16:19.095Z,5.05
2024-02-13T06:19:21.505Z,5.04
2024-02-13T06:22:23.782Z,5.01
2024-02-13T06:25:25.998Z,5.05
2024-02-13T06:28:28.212Z,5.11
2024-02-13T06:31:36.033Z,5.22
2024-02-13T06:34:38.290Z,5.15
2024-02-13T06:37:41.595Z,5.17
2024-02-13T06:40:44.292Z,5.20
2024-02-13T06:43:46.577Z,5.24
2024-02-13T06:46:49.182Z,5.24
2024-02-13T06:49:51.557Z,5.59
2024-02-13T06:52:55.369Z,5.94
2024-02-13T06:55:57.567Z,6.10
2024-02-13T06:58:59.796Z,7.42
2024-02-13T07:02:02.096Z,9.49
2024-02-13T07:05:07.554Z,11.07
2024-02-13T07:08:09.811Z,12.24
2024-02-13T07:11:12.198Z,13.00
2024-02-13T07:14:14.578Z,13.58
2024-02-13T07:17:16.827Z,13.92
2024-02-13T07:20:19.158Z,13.50
2024-02-13T07:23:21.672Z,13.75
2024-02-13T07:26:23.973Z,14.32
2024-02-13T07:29:26.448Z,15.39
2024-02-13T07:32:28.851Z,16.40
2024-02-13T07:35:34.193Z,16.85
2024-02-13T07:38:36.609Z,17.46
2024-02-13T07:41:39.165Z,18.05
2024-02-13T07:44:42.196Z,18.28
2024-02-13T07:47:46.701Z,18.79
2024-02-13T07:50:49.604Z,19.33
2024-02-13T07:53:51.938Z,20.07
2024-02-13T07:56:54.486Z,20.30
2024-02-13T07:59:57.462Z,20.29
2024-02-13T08:03:00.864Z,20.99
2024-02-13T08:06:03.555Z,21.08
2024-02-13T08:09:06.691Z,21.42
2024-02-13T08:12:10.045Z,22.03
2024-02-13T08:15:12.769Z,22.25
2024-02-13T08:18:15.481Z,22.74
2024-02-13T08:21:18.350Z,22.33
2024-02-13T08:24:22.157Z,22.33
2024-02-13T08:27:25.356Z,23.52
2024-02-13T08:30:28.797Z,24.22
2024-02-13T08:36:33.434Z,24.50
2024-02-13T08:39:37.219Z,24.89
2024-02-13T08:42:39.536Z,25.01
2024-02-13T08:45:42.660Z,25.54
2024-02-13T08:48:45.050Z,25.43
2024-02-13T08:51:47.496Z,25.26
2024-02-13T08:54:50.294Z,24.59
2024-02-13T08:57:55.776Z,23.86
2024-02-13T09:00:58.010Z,23.57
2024-02-13T09:04:01.069Z,22.55
2024-02-13T09:07:04.150Z,20.81
2024-02-13T09:10:06.886Z,20.05
2024-02-13T09:13:09.188Z,19.13
2024-02-13T09:16:13.825Z,18.37
2024-02-13T09:19:16.680Z,17.78
2024-02-13T09:22:19.024Z,18.21
2024-02-13T09:25:21.746Z,19.22
2024-02-13T09:28:24.681Z,20.29
2024-02-13T09:31:26.857Z,22.32
2024-02-13T09:34:29.800Z,22.83
2024-02-13T09:37:33.195Z,22.76
2024-02-13T09:40:35.939Z,23.37
2024-02-13T09:43:42.903Z,23.61
2024-02-13T09:46:48.726Z,22.70
2024-02-13T09:49:51.449Z,24.18
2024-02-13T09:52:57.283Z,25.60
2024-02-13T09:56:00.086Z,25.85
2024-02-13T09:59:04.823Z,26.41
2024-02-13T10:02:07.970Z,26.19
2024-02-13T10:05:11.936Z,26.18
2024-02-13T10:08:15.626Z,26.29
2024-02-13T10:11:19.343Z,26.66
2024-02-13T10:14:22.806Z,27.49
2024-02-13T10:17:25.499Z,27.05
2024-02-13T10:20:31.682Z,26.62
2024-02-13T10:23:37.018Z,24.64
2024-02-13T10:26:39.764Z,23.71
2024-02-13T10:29:44.442Z,21.20
2024-02-13T10:32:46.979Z,19.75
2024-02-13T10:35:54.199Z,18.79
2024-02-13T10:39:02.300Z,17.84
2024-02-13T10:42:11.470Z,17.45
2024-02-13T10:45:16.151Z,18.56
2024-02-13T10:48:41.834Z,21.08
2024-02-13T10:51:45.827Z,20.42
2024-02-13T10:54:50.159Z,20.23
2024-02-13T10:57:53.248Z,18.65
2024-02-13T11:00:56.598Z,17.20
2024-02-13T11:03:59.823Z,16.26
2024-02-13T11:07:03.397Z,16.21
2024-02-13T11:10:09.746Z,17.16
2024-02-13T11:13:12.096Z,20.20
2024-02-13T11:16:15.766Z,22.05
2024-02-13T11:19:21.012Z,23.17
2024-02-13T11:22:38.503Z,23.35
2024-02-13T11:25:43.775Z,22.33
2024-02-13T11:28:48.163Z,22.42
2024-02-13T11:31:59.175Z,22.40
2024-02-13T11:35:02.536Z,22.79
2024-02-13T11:38:13.637Z,22.90
2024-02-13T11:41:21.916Z,23.06
2024-02-13T11:44:24.366Z,22.75
2024-02-13T11:47:27.272Z,23.15
2024-02-13T11:50:36.001Z,23.66
2024-02-13T11:53:41.962Z,23.96
2024-02-13T11:56:44.264Z,24.03
2024-02-13T12:00:00.973Z,24.04
2024-02-13T12:03:05.768Z,24.24
2024-02-13T12:06:08.449Z,23.45
2024-02-13T12:09:13.433Z,23.31
2024-02-13T12:12:15.892Z,21.39
2024-02-13T12:15:21.939Z,21.30
2024-02-13T12:18:24.284Z,21.55
2024-02-13T12:21:27.857Z,22.14
2024-02-13T12:24:33.522Z,21.11
2024-02-13T12:27:36.230Z,20.96
2024-02-13T12:30:39.683Z,20.94
2024-02-13T12:33:42.794Z,20.55
2024-02-13T12:36:45.599Z,20.47
2024-02-13T12:39:48.583Z,20.09
2024-02-13T12:42:50.938Z,19.50
2024-02-13T12:45:53.090Z,19.71
2024-02-13T12:48:57.783Z,18.73
2024-02-13T12:52:00.894Z,19.39
2024-02-13T12:55:03.229Z,19.19
2024-02-13T12:58:08.852Z,18.04
2024-02-13T13:01:12.064Z,17.46
2024-02-13T13:04:16.764Z,17.11
2024-02-13T13:07:20.892Z,16.58
2024-02-13T13:10:24.493Z,15.91
2024-02-13T13:13:27.625Z,16.19
2024-02-13T13:16:31.736Z,16.47
2024-02-13T13:19:35.069Z,16.15
2024-02-13T13:22:42.230Z,15.71
2024-02-13T13:25:53.099Z,16.04
2024-02-13T13:28:55.686Z,15.73
2024-02-13T13:31:57.966Z,15.45
2024-02-13T13:35:01.986Z,15.03
2024-02-13T13:38:05.089Z,14.31
2024-02-13T13:41:08.488Z,13.80
2024-02-13T13:44:11.977Z,13.64
2024-02-13T13:47:14.255Z,13.53
2024-02-13T13:50:19.575Z,13.28
2024-02-13T13:53:24.121Z,13.04
2024-02-13T13:56:26.533Z,12.67
2024-02-13T13:59:28.745Z,12.47
2024-02-13T14:02:31.732Z,12.44
2024-02-13T14:05:43.263Z,12.41
2024-02-13T14:08:46.323Z,12.48
2024-02-13T14:11:48.912Z,12.25
2024-02-13T14:14:53.971Z,12.25
2024-02-13T14:17:59.325Z,12.08
2024-02-13T14:21:01.844Z,11.89
2024-02-13T14:24:05.714Z,11.83
2024-02-13T14:27:08.630Z,11.96
2024-02-13T14:30:11.889Z,11.77
2024-02-13T14:33:14.729Z,11.71
2024-02-13T14:36:17.940Z,11.55
2024-02-13T14:39:20.485Z,11.39
2024-02-13T14:42:23.025Z,11.33
2024-02-13T14:45:26.856Z,11.25
2024-02-13T14:48:29.513Z,11.17
2024-02-13T14:51:31.998Z,10.82
2024-02-13T14:54:36.700Z,10.62
2024-02-13T14:57:46.954Z,10.64
2024-02-13T15:00:58.579Z,10.53
2024-02-13T15:04:03.674Z,10.32
2024-02-13T15:07:06.268Z,10.09
2024-02-13T15:10:12.887Z,10.07
2024-02-13T15:13:16.395Z,10.03
2024-02-13T15:16:19.044Z,9.83
2024-02-13T15:19:22.347Z,9.73
2024-02-13T15:22:31.035Z,9.66
2024-02-13T15:25:41.706Z,9.63
2024-02-13T15:28:44.402Z,9.52
2024-02-13T15:31:47.086Z,9.37
2024-02-13T15:34:49.574Z,9.37
2024-02-13T15:38:10.313Z,9.23
2024-02-13T15:41:30.881Z,9.20
2024-02-13T15:44:52.861Z,9.13
2024-02-13T15:47:55.249Z,9.04
2024-02-13T15:50:59.363Z,8.96
2024-02-13T15:54:04.348Z,8.83
2024-02-13T15:57:09.943Z,8.79
2024-02-13T16:00:23.060Z,8.65
2024-02-13T16:03:26.075Z,8.61
2024-02-13T16:06:28.468Z,8.60
2024-02-13T16:09:31.995Z,8.52
2024-02-13T16:12:38.374Z,8.39
2024-02-13T16:15:41.012Z,8.44
2024-02-13T16:18:45.737Z,8.36
2024-02-13T16:21:48.331Z,8.26
2024-02-13T16:24:50.651Z,8.30
2024-02-13T16:27:52.930Z,8.34
2024-02-13T16:30:55.181Z,8.38
2024-02-13T16:33:57.539Z,8.32
2024-02-13T16:36:59.838Z,8.40
2024-02-13T16:40:03.091Z,8.24
2024-02-13T16:43:05.737Z,8.20
2024-02-13T16:46:13.530Z,8.13
2024-02-13T16:49:15.953Z,8.12
2024-02-13T16:52:20.014Z,8.19
2024-02-13T16:55:25.701Z,8.16
2024-02-13T16:58:28.779Z,8.28
2024-02-13T17:01:31.300Z,8.34
2024-02-13T17:04:33.506Z,8.34
2024-02-13T17:07:36.898Z,8.43
2024-02-13T17:10:43.332Z,8.41
2024-02-13T17:13:46.330Z,8.50
2024-02-13T17:16:48.438Z,8.51
2024-02-13T17:19:50.495Z,8.42
2024-02-13T17:22:55.046Z,8.35
2024-02-13T17:25:57.263Z,8.27
2024-02-13T17:29:00.237Z,8.20
2024-02-13T17:32:02.302Z,8.13
2024-02-13T17:35:05.998Z,8.08
2024-02-13T17:38:08.485Z,8.13
2024-02-13T17:41:13.018Z,8.24
2024-02-13T17:44:15.311Z,8.09
2024-02-13T17:47:17.579Z,7.89
2024-02-13T17:50:19.908Z,7.93
2024-02-13T17:53:22.687Z,7.88
2024-02-13T17:56:28.661Z,7.73
2024-02-13T17:59:31.324Z,7.66
2024-02-13T18:02:33.942Z,7.60
2024-02-13T18:05:36.297Z,7.63
2024-02-13T18:08:38.582Z,7.53
2024-02-13T18:11:40.915Z,7.61
2024-02-13T18:14:43.640Z,7.66
2024-02-13T18:17:46.456Z,7.62
2024-02-13T18:20:49.105Z,7.72
2024-02-13T18:23:55.503Z,7.80
2024-02-13T18:26:58.342Z,7.85
2024-02-13T18:30:00.681Z,7.88
2024-02-13T18:33:03.086Z,7.81
2024-02-13T18:36:05.855Z,7.85
2024-02-13T18:39:08.189Z,7.89
2024-02-13T18:42:10.507Z,7.83
2024-02-13T18:45:13.539Z,7.81
2024-02-13T18:48:16.009Z,7.80
2024-02-13T18:51:20.208Z,7.81
2024-02-13T18:54:23.803Z,7.76
2024-02-13T18:57:26.445Z,7.88
2024-02-13T19:00:29.752Z,7.78
2024-02-13T19:03:32.315Z,7.84
2024-02-13T19:06:34.553Z,7.82
2024-02-13T19:09:36.885Z,7.91
2024-02-13T19:12:39.545Z,7.93
2024-02-13T19:15:41.861Z,7.85
2024-02-13T19:18:44.405Z,7.77
2024-02-13T19:21:47.875Z,7.81
2024-02-13T19:24:50.651Z,7.66
2024-02-13T19:27:54.099Z,7.67
2024-02-13T19:30:56.263Z,7.63
2024-02-13T19:33:58.615Z,7.59
2024-02-13T19:37:01.587Z,7.52
2024-02-13T19:40:05.500Z,7.55
2024-02-13T19:43:07.688Z,7.42
2024-02-13T19:46:11.836Z,7.45
2024-02-13T19:49:15.926Z,7.52
2024-02-13T19:52:18.617Z,7.30
2024-02-13T19:55:20.846Z,7.21
2024-02-13T19:58:23.058Z,7.10
2024-02-13T20:01:25.303Z,7.06
2024-02-13T20:04:28.873Z,6.87
2024-02-13T20:07:31.731Z,6.63
2024-02-13T20:10:35.630Z,6.58
2024-02-13T20:13:39.113Z,6.44
2024-02-13T20:16:41.282Z,6.32
2024-02-13T20:19:43.547Z,6.22
2024-02-13T20:22:47.063Z,6.12
2024-02-13T20:25:49.341Z,6.15
2024-02-13T20:28:53.090Z,6.07
2024-02-13T20:31:55.280Z,5.83
2024-02-13T20:34:57.431Z,5.81
2024-02-13T20:37:59.477Z,5.73
2024-02-13T20:41:01.798Z,5.69
2024-02-13T20:44:05.605Z,5.52
2024-02-13T20:47:08.173Z,5.52
2024-02-13T20:50:13.707Z,5.47
2024-02-13T20:53:16.035Z,5.43
2024-02-13T20:56:18.524Z,5.45
2024-02-13T20:59:21.064Z,5.38
2024-02-13T21:02:23.497Z,5.35
2024-02-13T21:05:26.094Z,5.30
2024-02-13T21:08:28.414Z,5.23
2024-02-13T21:11:32.078Z,5.24
2024-02-13T21:14:34.765Z,5.12
2024-02-13T21:17:42.582Z,5.09
2024-02-13T21:20:47.292Z,4.94
2024-02-13T21:23:52.624Z,4.87
2024-02-13T21:26:55.188Z,4.69
2024-02-13T21:29:57.386Z,4.70
2024-02-13T21:32:59.643Z,4.70
2024-02-13T21:36:02.074Z,4.72
2024-02-13T21:39:09.157Z,4.67
2024-02-13T21:42:11.773Z,4.57
2024-02-13T21:45:14.122Z,4.59
2024-02-13T21:48:16.489Z,4.68
2024-02-13T21:51:18.831Z,4.65
2024-02-13T21:54:21.025Z,4.57
2024-02-13T21:57:24.981Z,4.51
2024-02-13T22:00:27.886Z,4.54
2024-02-13T22:03:30.109Z,4.46
2024-02-13T22:06:34.548Z,4.41
2024-02-13T22:09:36.756Z,4.38
2024-02-13T22:12:42.261Z,4.34
2024-02-13T22:15:46.532Z,4.20
2024-02-13T22:18:48.929Z,4.21
2024-02-13T22:21:51.435Z,4.15
2024-02-13T22:24:53.699Z,4.09
2024-02-13T22:27:56.246Z,4.05
2024-02-13T22:30:58.505Z,3.95
2024-02-13T22:34:00.801Z,3.94
2024-02-13T22:37:03.061Z,3.89
2024-02-13T22:40:05.443Z,3.96
2024-02-13T22:43:08.273Z,3.92
2024-02-13T22:46:13.147Z,3.93
2024-02-13T22:49:15.434Z,3.88
2024-02-13T22:52:17.727Z,3.83
2024-02-13T22:55:20.352Z,3.78
2024-02-13T22:58:22.708Z,3.76
2024-02-13T23:01:25.356Z,3.85
2024-02-13T23:04:27.583Z,3.83
2024-02-13T23:07:30.075Z,3.79
2024-02-13T23:10:32.443Z,3.78
2024-02-13T23:13:40.514Z,3.66
2024-02-13T23:16:47.008Z,3.68
2024-02-13T23:19:49.544Z,3.65
2024-02-13T23:22:51.764Z,3.70
2024-02-13T23:25:53.970Z,3.74
2024-02-13T23:28:57.287Z,3.77
2024-02-13T23:31:59.899Z,3.65
2024-02-13T23:35:03.204Z,3.61
2024-02-13T23:38:09.175Z,3.55
2024-02-13T23:41:11.505Z,3.55
2024-02-13T23:44:13.661Z,3.53
2024-02-13T23:47:16.910Z,3.57
2024-02-13T23:50:19.705Z,3.39
2024-02-13T23:53:22.749Z,3.39
2024-02-13T23:56:26.418Z,3.40
2024-02-13T23:59:28.864Z,3.48
